sensor_id;sensor_type;location;lat;lon;timestamp;P1;durP1;ratioP1;P2;durP2;ratioP2
2434;SDS011;1228;51.022;6.764;2024-01-10T00:01:10;10.23;;;9.23;;
2434;SDS011;1228;51.022;6.764;2024-01-10T00:03:35;11.17;;;10.10;;
2434;SDS011;1228;51.022;6.764;2024-01-10T00:06:01;14.70;;;10.80;;
2434;SDS011;1228;51.022;6.764;2024-01-10T00:08:26;18.63;;;12.00;;
2434;SDS011;1228;51.022;6.764;2024-01-10T00:10:52;10.70;;;9.70;;
2434;SDS011;1228;51.022;6.764;2024-01-10T00:13:19;10.43;;;9.53;;
2434;SDS011;1228;51.022;6.764;2024-01-10T00:15:46;11.63;;;9.90;;
2434;SDS011;1228;51.022;6.764;2024-01-10T00:18:12;14.03;;;10.10;;
2434;SDS011;1228;51.022;6.764;2024-01-10T00:20:38;11.30;;;10.17;;
2434;SDS011;1228;51.022;6.764;2024-01-10T00:23:04;11.10;;;9.20;;
2434;SDS011;1228;51.022;6.764;2024-01-10T00:25:31;12.90;;;9.73;;
2434;SDS011;1228;51.022;6.764;2024-01-10T00:27:57;11.67;;;9.07;;
2434;SDS011;1228;51.022;6.764;2024-01-10T00:30:23;12.43;;;9.80;;
2434;SDS011;1228;51.022;6.764;2024-01-10T00:32:50;14.33;;;9.93;;
2434;SDS011;1228;51.022;6.764;2024-01-10T00:35:16;10.30;;;9.13;;
2434;SDS011;1228;51.022;6.764;2024-01-10T00:37:41;11.43;;;10.27;;
2434;SDS011;1228;51.022;6.764;2024-01-10T00:40:07;9.90;;;8.90;;
2434;SDS011;1228;51.022;6.764;2024-01-10T00:42:33;14.13;;;10.80;;
2434;SDS011;1228;51.022;6.764;2024-01-10T00:44:59;13.60;;;10.00;;
2434;SDS011;1228;51.022;6.764;2024-01-10T00:47:24;11.87;;;10.63;;
2434;SDS011;1228;51.022;6.764;2024-01-10T00:49:50;15.07;;;10.03;;
2434;SDS011;1228;51.022;6.764;2024-01-10T00:52:16;11.40;;;9.07;;
2434;SDS011;1228;51.022;6.764;2024-01-10T00:54:41;13.03;;;10.40;;
2434;SDS011;1228;51.022;6.764;2024-01-10T00:57:09;11.33;;;10.20;;
2434;SDS011;1228;51.022;6.764;2024-01-10T00:59:34;12.50;;;10.03;;
2434;SDS011;1228;51.022;6.764;2024-01-10T01:02:00;12.63;;;10.53;;
2434;SDS011;1228;51.022;6.764;2024-01-10T01:04:26;14.63;;;9.50;;
2434;SDS011;1228;51.022;6.764;2024-01-10T01:06:51;11.53;;;10.43;;
2434;SDS011;1228;51.022;6.764;2024-01-10T01:09:17;12.17;;;9.73;;
2434;SDS011;1228;51.022;6.764;2024-01-10T01:11:44;13.50;;;9.93;;
2434;SDS011;1228;51.022;6.764;2024-01-10T01:14:09;11.57;;;10.37;;
2434;SDS011;1228;51.022;6.764;2024-01-10T01:16:35;14.60;;;9.93;;
2434;SDS011;1228;51.022;6.764;2024-01-10T01:19:01;15.30;;;10.97;;
2434;SDS011;1228;51.022;6.764;2024-01-10T01:21:26;12.13;;;9.80;;
2434;SDS011;1228;51.022;6.764;2024-01-10T01:23:52;12.20;;;10.23;;
2434;SDS011;1228;51.022;6.764;2024-01-10T01:26:18;14.57;;;11.00;;
2434;SDS011;1228;51.022;6.764;2024-01-10T01:28:43;12.37;;;10.33;;
2434;SDS011;1228;51.022;6.764;2024-01-10T01:31:09;12.00;;;9.87;;
2434;SDS011;1228;51.022;6.764;2024-01-10T01:33:34;12.60;;;10.97;;
2434;SDS011;1228;51.022;6.764;2024-01-10T01:36:01;12.13;;;10.47;;
2434;SDS011;1228;51.022;6.764;2024-01-10T01:38:27;13.63;;;10.50;;
2434;SDS011;1228;51.022;6.764;2024-01-10T01:40:52;10.70;;;9.67;;
2434;SDS011;1228;51.022;6.764;2024-01-10T01:43:22;12.63;;;10.87;;
2434;SDS011;1228;51.022;6.764;2024-01-10T01:45:57;14.80;;;9.67;;
2434;SDS011;1228;51.022;6.764;2024-01-10T01:48:23;10.63;;;9.53;;
2434;SDS011;1228;51.022;6.764;2024-01-10T01:50:55;12.23;;;10.13;;
2434;SDS011;1228;51.022;6.764;2024-01-10T01:53:23;11.47;;;10.33;;
2434;SDS011;1228;51.022;6.764;2024-01-10T01:55:49;14.97;;;10.93;;
2434;SDS011;1228;51.022;6.764;2024-01-10T01:58:15;12.43;;;10.13;;
2434;SDS011;1228;51.022;6.764;2024-01-10T02:00:42;10.97;;;9.47;;
2434;SDS011;1228;51.022;6.764;2024-01-10T02:03:09;10.73;;;9.67;;
2434;SDS011;1228;51.022;6.764;2024-01-10T02:05:35;14.40;;;10.63;;
2434;SDS011;1228;51.022;6.764;2024-01-10T02:08:01;12.50;;;10.47;;
2434;SDS011;1228;51.022;6.764;2024-01-10T02:10:27;11.20;;;9.83;;
2434;SDS011;1228;51.022;6.764;2024-01-10T02:12:53;20.07;;;10.20;;
2434;SDS011;1228;51.022;6.764;2024-01-10T02:15:19;13.93;;;10.13;;
2434;SDS011;1228;51.022;6.764;2024-01-10T02:17:45;14.30;;;10.03;;
2434;SDS011;1228;51.022;6.764;2024-01-10T02:22:37;13.17;;;10.87;;
2434;SDS011;1228;51.022;6.764;2024-01-10T02:25:09;13.43;;;10.87;;
2434;SDS011;1228;51.022;6.764;2024-01-10T02:27:35;18.40;;;11.73;;
2434;SDS011;1228;51.022;6.764;2024-01-10T02:30:02;13.30;;;11.03;;
2434;SDS011;1228;51.022;6.764;2024-01-10T02:32:28;11.43;;;9.67;;
2434;SDS011;1228;51.022;6.764;2024-01-10T02:34:54;12.23;;;10.47;;
2434;SDS011;1228;51.022;6.764;2024-01-10T02:37:20;13.70;;;9.80;;
2434;SDS011;1228;51.022;6.764;2024-01-10T02:39:45;12.17;;;10.77;;
2434;SDS011;1228;51.022;6.764;2024-01-10T02:42:11;11.33;;;9.67;;
2434;SDS011;1228;51.022;6.764;2024-01-10T02:44:37;13.60;;;9.70;;
2434;SDS011;1228;51.022;6.764;2024-01-10T02:47:03;12.07;;;9.87;;
2434;SDS011;1228;51.022;6.764;2024-01-10T02:49:28;11.43;;;10.27;;
2434;SDS011;1228;51.022;6.764;2024-01-10T02:51:54;11.47;;;10.27;;
2434;SDS011;1228;51.022;6.764;2024-01-10T02:54:20;11.17;;;9.60;;
2434;SDS011;1228;51.022;6.764;2024-01-10T02:56:45;12.37;;;10.03;;
2434;SDS011;1228;51.022;6.764;2024-01-10T02:59:11;14.57;;;9.93;;
2434;SDS011;1228;51.022;6.764;2024-01-10T03:01:36;9.67;;;8.60;;
2434;SDS011;1228;51.022;6.764;2024-01-10T03:04:02;11.70;;;8.83;;
2434;SDS011;1228;51.022;6.764;2024-01-10T03:06:28;13.37;;;9.33;;
2434;SDS011;1228;51.022;6.764;2024-01-10T03:08:54;12.43;;;9.27;;
2434;SDS011;1228;51.022;6.764;2024-01-10T03:11:20;12.67;;;10.27;;
2434;SDS011;1228;51.022;6.764;2024-01-10T03:13:46;12.07;;;10.97;;
2434;SDS011;1228;51.022;6.764;2024-01-10T03:16:12;12.63;;;10.30;;
2434;SDS011;1228;51.022;6.764;2024-01-10T03:18:38;10.50;;;9.43;;
2434;SDS011;1228;51.022;6.764;2024-01-10T03:21:04;13.67;;;9.43;;
2434;SDS011;1228;51.022;6.764;2024-01-10T03:23:30;18.10;;;10.40;;
2434;SDS011;1228;51.022;6.764;2024-01-10T03:25:56;13.13;;;10.00;;
2434;SDS011;1228;51.022;6.764;2024-01-10T03:28:22;13.23;;;10.17;;
2434;SDS011;1228;51.022;6.764;2024-01-10T03:30:48;11.73;;;9.37;;
2434;SDS011;1228;51.022;6.764;2024-01-10T03:33:14;11.97;;;10.63;;
2434;SDS011;1228;51.022;6.764;2024-01-10T03:35:40;11.83;;;9.73;;
2434;SDS011;1228;51.022;6.764;2024-01-10T03:38:06;11.80;;;10.53;;
2434;SDS011;1228;51.022;6.764;2024-01-10T03:40:32;14.57;;;10.40;;
2434;SDS011;1228;51.022;6.764;2024-01-10T03:42:58;11.50;;;10.30;;
2434;SDS011;1228;51.022;6.764;2024-01-10T03:45:23;11.87;;;9.33;;
2434;SDS011;1228;51.022;6.764;2024-01-10T03:47:49;17.80;;;10.63;;
2434;SDS011;1228;51.022;6.764;2024-01-10T03:50:19;11.50;;;10.30;;
2434;SDS011;1228;51.022;6.764;2024-01-10T03:52:45;15.03;;;10.37;;
2434;SDS011;1228;51.022;6.764;2024-01-10T03:55:14;10.90;;;9.77;;
2434;SDS011;1228;51.022;6.764;2024-01-10T03:57:40;12.03;;;9.90;;
2434;SDS011;1228;51.022;6.764;2024-01-10T04:00:07;10.80;;;9.77;;
2434;SDS011;1228;51.022;6.764;2024-01-10T04:02:33;13.33;;;10.53;;
2434;SDS011;1228;51.022;6.764;2024-01-10T04:05:02;13.70;;;10.10;;
2434;SDS011;1228;51.022;6.764;2024-01-10T04:07:28;11.40;;;10.13;;
2434;SDS011;1228;51.022;6.764;2024-01-10T04:09:53;13.20;;;10.57;;
2434;SDS011;1228;51.022;6.764;2024-01-10T04:12:19;13.90;;;9.63;;
2434;SDS011;1228;51.022;6.764;2024-01-10T04:14:44;11.70;;;9.53;;
2434;SDS011;1228;51.022;6.764;2024-01-10T04:17:10;13.50;;;9.73;;
2434;SDS011;1228;51.022;6.764;2024-01-10T04:19:36;14.13;;;9.50;;
2434;SDS011;1228;51.022;6.764;2024-01-10T04:22:01;14.10;;;10.30;;
2434;SDS011;1228;51.022;6.764;2024-01-10T04:24:27;14.23;;;9.77;;
2434;SDS011;1228;51.022;6.764;2024-01-10T04:26:53;13.07;;;9.87;;
2434;SDS011;1228;51.022;6.764;2024-01-10T04:29:18;12.07;;;9.93;;
2434;SDS011;1228;51.022;6.764;2024-01-10T04:31:44;11.00;;;9.47;;
2434;SDS011;1228;51.022;6.764;2024-01-10T04:34:09;11.17;;;10.10;;
2434;SDS011;1228;51.022;6.764;2024-01-10T04:36:35;12.73;;;10.40;;
2434;SDS011;1228;51.022;6.764;2024-01-10T04:39:01;25.30;;;13.70;;
2434;SDS011;1228;51.022;6.764;2024-01-10T04:41:27;22.33;;;12.27;;
2434;SDS011;1228;51.022;6.764;2024-01-10T04:43:53;16.93;;;11.50;;
2434;SDS011;1228;51.022;6.764;2024-01-10T04:46:18;19.27;;;11.03;;
2434;SDS011;1228;51.022;6.764;2024-01-10T04:48:44;13.17;;;9.53;;
2434;SDS011;1228;51.022;6.764;2024-01-10T04:51:09;15.37;;;11.47;;
2434;SDS011;1228;51.022;6.764;2024-01-10T04:53:35;11.13;;;9.37;;
2434;SDS011;1228;51.022;6.764;2024-01-10T04:56:01;16.90;;;10.93;;
2434;SDS011;1228;51.022;6.764;2024-01-10T04:58:26;14.63;;;10.60;;
2434;SDS011;1228;51.022;6.764;2024-01-10T05:00:52;10.30;;;9.00;;
2434;SDS011;1228;51.022;6.764;2024-01-10T05:03:17;14.17;;;9.47;;
2434;SDS011;1228;51.022;6.764;2024-01-10T05:05:43;12.97;;;10.33;;
2434;SDS011;1228;51.022;6.764;2024-01-10T05:08:09;13.23;;;10.80;;
2434;SDS011;1228;51.022;6.764;2024-01-10T05:10:34;16.20;;;10.10;;
2434;SDS011;1228;51.022;6.764;2024-01-10T05:13:00;13.87;;;10.67;;
2434;SDS011;1228;51.022;6.764;2024-01-10T05:15:25;12.60;;;10.90;;
2434;SDS011;1228;51.022;6.764;2024-01-10T05:17:51;11.37;;;10.20;;
2434;SDS011;1228;51.022;6.764;2024-01-10T05:20:17;15.43;;;11.07;;
2434;SDS011;1228;51.022;6.764;2024-01-10T05:22:43;14.97;;;10.20;;
2434;SDS011;1228;51.022;6.764;2024-01-10T05:25:09;14.30;;;10.50;;
2434;SDS011;1228;51.022;6.764;2024-01-10T05:27:34;13.70;;;10.53;;
2434;SDS011;1228;51.022;6.764;2024-01-10T05:30:00;10.07;;;9.10;;
2434;SDS011;1228;51.022;6.764;2024-01-10T05:32:26;14.30;;;10.50;;
2434;SDS011;1228;51.022;6.764;2024-01-10T05:34:52;12.60;;;9.90;;
2434;SDS011;1228;51.022;6.764;2024-01-10T05:37:18;13.13;;;10.20;;
2434;SDS011;1228;51.022;6.764;2024-01-10T05:39:44;16.20;;;10.17;;
2434;SDS011;1228;51.022;6.764;2024-01-10T05:42:10;16.07;;;10.23;;
2434;SDS011;1228;51.022;6.764;2024-01-10T05:44:36;12.40;;;10.90;;
2434;SDS011;1228;51.022;6.764;2024-01-10T05:47:02;13.97;;;10.83;;
2434;SDS011;1228;51.022;6.764;2024-01-10T05:49:27;13.60;;;10.00;;
2434;SDS011;1228;51.022;6.764;2024-01-10T05:51:53;12.47;;;9.87;;
2434;SDS011;1228;51.022;6.764;2024-01-10T05:54:19;13.07;;;9.40;;
2434;SDS011;1228;51.022;6.764;2024-01-10T05:56:45;17.00;;;11.60;;
2434;SDS011;1228;51.022;6.764;2024-01-10T05:59:10;17.73;;;11.63;;
2434;SDS011;1228;51.022;6.764;2024-01-10T06:01:36;15.03;;;10.93;;
2434;SDS011;1228;51.022;6.764;2024-01-10T06:04:03;14.93;;;11.53;;
2434;SDS011;1228;51.022;6.764;2024-01-10T06:06:29;13.10;;;11.80;;
2434;SDS011;1228;51.022;6.764;2024-01-10T06:08:55;11.87;;;10.53;;
2434;SDS011;1228;51.022;6.764;2024-01-10T06:11:21;13.97;;;10.60;;
2434;SDS011;1228;51.022;6.764;2024-01-10T06:13:46;12.63;;;10.67;;
2434;SDS011;1228;51.022;6.764;2024-01-10T06:16:12;13.47;;;11.07;;
2434;SDS011;1228;51.022;6.764;2024-01-10T06:18:38;13.67;;;10.23;;
2434;SDS011;1228;51.022;6.764;2024-01-10T06:21:04;11.60;;;10.33;;
2434;SDS011;1228;51.022;6.764;2024-01-10T06:23:30;13.30;;;10.57;;
2434;SDS011;1228;51.022;6.764;2024-01-10T06:25:56;13.80;;;11.37;;
2434;SDS011;1228;51.022;6.764;2024-01-10T06:28:21;11.67;;;9.57;;
2434;SDS011;1228;51.022;6.764;2024-01-10T06:30:48;13.40;;;11.23;;
2434;SDS011;1228;51.022;6.764;2024-01-10T06:33:14;15.73;;;11.60;;
2434;SDS011;1228;51.022;6.764;2024-01-10T06:35:40;13.67;;;11.07;;
2434;SDS011;1228;51.022;6.764;2024-01-10T06:38:08;16.70;;;10.77;;
2434;SDS011;1228;51.022;6.764;2024-01-10T06:40:34;12.73;;;10.30;;
2434;SDS011;1228;51.022;6.764;2024-01-10T06:43:01;12.47;;;10.03;;
2434;SDS011;1228;51.022;6.764;2024-01-10T06:45:33;15.23;;;11.80;;
2434;SDS011;1228;51.022;6.764;2024-01-10T06:47:59;15.33;;;10.47;;
2434;SDS011;1228;51.022;6.764;2024-01-10T06:50:24;11.60;;;9.97;;
2434;SDS011;1228;51.022;6.764;2024-01-10T06:52:50;11.43;;;10.13;;
2434;SDS011;1228;51.022;6.764;2024-01-10T06:55:15;17.80;;;11.27;;
2434;SDS011;1228;51.022;6.764;2024-01-10T06:57:41;15.23;;;10.33;;
2434;SDS011;1228;51.022;6.764;2024-01-10T07:00:07;11.87;;;10.43;;
2434;SDS011;1228;51.022;6.764;2024-01-10T07:02:36;13.37;;;10.93;;
2434;SDS011;1228;51.022;6.764;2024-01-10T07:05:02;12.30;;;10.60;;
2434;SDS011;1228;51.022;6.764;2024-01-10T07:07:31;16.10;;;12.57;;
2434;SDS011;1228;51.022;6.764;2024-01-10T07:09:57;14.87;;;11.33;;
2434;SDS011;1228;51.022;6.764;2024-01-10T07:12:22;13.70;;;11.60;;
2434;SDS011;1228;51.022;6.764;2024-01-10T07:14:48;27.97;;;14.93;;
2434;SDS011;1228;51.022;6.764;2024-01-10T07:17:13;19.10;;;12.20;;
2434;SDS011;1228;51.022;6.764;2024-01-10T07:19:39;13.47;;;11.67;;
2434;SDS011;1228;51.022;6.764;2024-01-10T07:22:05;13.07;;;10.97;;
2434;SDS011;1228;51.022;6.764;2024-01-10T07:24:31;13.13;;;10.93;;
2434;SDS011;1228;51.022;6.764;2024-01-10T07:26:56;17.63;;;11.80;;
2434;SDS011;1228;51.022;6.764;2024-01-10T07:29:22;13.10;;;11.77;;
2434;SDS011;1228;51.022;6.764;2024-01-10T07:31:47;17.37;;;11.40;;
2434;SDS011;1228;51.022;6.764;2024-01-10T07:34:13;17.07;;;13.00;;
2434;SDS011;1228;51.022;6.764;2024-01-10T07:36:42;17.40;;;12.40;;
2434;SDS011;1228;51.022;6.764;2024-01-10T07:39:08;15.50;;;12.97;;
2434;SDS011;1228;51.022;6.764;2024-01-10T07:41:34;16.27;;;13.37;;
2434;SDS011;1228;51.022;6.764;2024-01-10T07:43:59;21.87;;;17.83;;
2434;SDS011;1228;51.022;6.764;2024-01-10T07:46:25;24.00;;;17.10;;
2434;SDS011;1228;51.022;6.764;2024-01-10T07:48:52;43.13;;;24.57;;
2434;SDS011;1228;51.022;6.764;2024-01-10T07:51:17;29.13;;;18.33;;
2434;SDS011;1228;51.022;6.764;2024-01-10T07:53:44;23.20;;;16.57;;
2434;SDS011;1228;51.022;6.764;2024-01-10T07:56:10;26.00;;;16.40;;
2434;SDS011;1228;51.022;6.764;2024-01-10T07:58:37;35.53;;;17.13;;
2434;SDS011;1228;51.022;6.764;2024-01-10T08:01:03;20.77;;;16.37;;
2434;SDS011;1228;51.022;6.764;2024-01-10T08:03:29;21.00;;;14.73;;
2434;SDS011;1228;51.022;6.764;2024-01-10T08:05:55;16.70;;;14.90;;
2434;SDS011;1228;51.022;6.764;2024-01-10T08:08:21;24.83;;;16.00;;
2434;SDS011;1228;51.022;6.764;2024-01-10T08:10:47;18.40;;;13.83;;
2434;SDS011;1228;51.022;6.764;2024-01-10T08:13:12;21.53;;;15.20;;
2434;SDS011;1228;51.022;6.764;2024-01-10T08:15:38;21.27;;;13.40;;
2434;SDS011;1228;51.022;6.764;2024-01-10T08:18:04;21.57;;;13.37;;
2434;SDS011;1228;51.022;6.764;2024-01-10T08:20:29;17.03;;;13.27;;
2434;SDS011;1228;51.022;6.764;2024-01-10T08:22:55;17.97;;;13.20;;
2434;SDS011;1228;51.022;6.764;2024-01-10T08:25:21;13.83;;;12.47;;
2434;SDS011;1228;51.022;6.764;2024-01-10T08:27:47;15.90;;;13.17;;
2434;SDS011;1228;51.022;6.764;2024-01-10T08:30:13;17.03;;;13.13;;
2434;SDS011;1228;51.022;6.764;2024-01-10T08:32:40;19.97;;;14.10;;
2434;SDS011;1228;51.022;6.764;2024-01-10T08:35:06;20.77;;;13.50;;
2434;SDS011;1228;51.022;6.764;2024-01-10T08:37:33;13.43;;;11.80;;
2434;SDS011;1228;51.022;6.764;2024-01-10T08:39:59;15.37;;;13.77;;
2434;SDS011;1228;51.022;6.764;2024-01-10T08:42:31;15.33;;;13.27;;
2434;SDS011;1228;51.022;6.764;2024-01-10T08:44:57;18.10;;;13.03;;
2434;SDS011;1228;51.022;6.764;2024-01-10T08:47:23;14.73;;;13.00;;
2434;SDS011;1228;51.022;6.764;2024-01-10T08:49:49;18.43;;;12.73;;
2434;SDS011;1228;51.022;6.764;2024-01-10T08:52:15;18.00;;;13.13;;
2434;SDS011;1228;51.022;6.764;2024-01-10T08:54:41;17.07;;;14.20;;
2434;SDS011;1228;51.022;6.764;2024-01-10T08:57:07;24.33;;;14.90;;
2434;SDS011;1228;51.022;6.764;2024-01-10T08:59:33;20.43;;;15.13;;
2434;SDS011;1228;51.022;6.764;2024-01-10T09:01:58;19.93;;;15.07;;
2434;SDS011;1228;51.022;6.764;2024-01-10T09:04:24;18.30;;;14.30;;
2434;SDS011;1228;51.022;6.764;2024-01-10T09:06:50;20.07;;;14.93;;
2434;SDS011;1228;51.022;6.764;2024-01-10T09:09:16;19.77;;;14.50;;
2434;SDS011;1228;51.022;6.764;2024-01-10T09:11:45;18.73;;;14.07;;
2434;SDS011;1228;51.022;6.764;2024-01-10T09:14:13;19.57;;;12.80;;
2434;SDS011;1228;51.022;6.764;2024-01-10T09:16:38;17.33;;;13.13;;
2434;SDS011;1228;51.022;6.764;2024-01-10T09:19:04;20.73;;;13.23;;
2434;SDS011;1228;51.022;6.764;2024-01-10T09:21:30;21.20;;;14.27;;
2434;SDS011;1228;51.022;6.764;2024-01-10T09:23:55;22.10;;;15.07;;
2434;SDS011;1228;51.022;6.764;2024-01-10T09:26:21;19.73;;;14.67;;
2434;SDS011;1228;51.022;6.764;2024-01-10T09:28:47;21.53;;;14.60;;
2434;SDS011;1228;51.022;6.764;2024-01-10T09:31:13;21.03;;;15.40;;
2434;SDS011;1228;51.022;6.764;2024-01-10T09:33:39;24.40;;;17.13;;
2434;SDS011;1228;51.022;6.764;2024-01-10T09:36:05;28.87;;;16.87;;
2434;SDS011;1228;51.022;6.764;2024-01-10T09:38:34;20.73;;;16.27;;
2434;SDS011;1228;51.022;6.764;2024-01-10T09:41:03;21.53;;;15.23;;
2434;SDS011;1228;51.022;6.764;2024-01-10T09:43:30;22.40;;;15.60;;
2434;SDS011;1228;51.022;6.764;2024-01-10T09:45:57;21.03;;;14.80;;
2434;SDS011;1228;51.022;6.764;2024-01-10T09:48:24;21.70;;;13.07;;
2434;SDS011;1228;51.022;6.764;2024-01-10T09:50:51;20.67;;;13.10;;
2434;SDS011;1228;51.022;6.764;2024-01-10T09:53:23;16.23;;;12.00;;
2434;SDS011;1228;51.022;6.764;2024-01-10T09:55:52;19.70;;;12.70;;
2434;SDS011;1228;51.022;6.764;2024-01-10T09:58:22;19.57;;;12.67;;
2434;SDS011;1228;51.022;6.764;2024-01-10T10:00:50;18.33;;;11.97;;
2434;SDS011;1228;51.022;6.764;2024-01-10T10:03:15;13.70;;;11.63;;
2434;SDS011;1228;51.022;6.764;2024-01-10T10:05:43;18.00;;;10.87;;
2434;SDS011;1228;51.022;6.764;2024-01-10T10:08:10;19.30;;;12.10;;
2434;SDS011;1228;51.022;6.764;2024-01-10T10:10:37;18.10;;;12.03;;
2434;SDS011;1228;51.022;6.764;2024-01-10T10:13:09;17.97;;;11.13;;
2434;SDS011;1228;51.022;6.764;2024-01-10T10:15:40;16.30;;;11.37;;
2434;SDS011;1228;51.022;6.764;2024-01-10T10:18:05;19.10;;;11.47;;
2434;SDS011;1228;51.022;6.764;2024-01-10T10:20:31;16.20;;;11.50;;
2434;SDS011;1228;51.022;6.764;2024-01-10T10:23:07;14.93;;;10.63;;
2434;SDS011;1228;51.022;6.764;2024-01-10T10:25:42;15.17;;;10.30;;
2434;SDS011;1228;51.022;6.764;2024-01-10T10:28:08;16.53;;;12.03;;
2434;SDS011;1228;51.022;6.764;2024-01-10T10:30:34;15.13;;;10.50;;
2434;SDS011;1228;51.022;6.764;2024-01-10T10:33:00;15.50;;;9.57;;
2434;SDS011;1228;51.022;6.764;2024-01-10T10:35:26;17.07;;;10.97;;
2434;SDS011;1228;51.022;6.764;2024-01-10T10:37:52;17.50;;;12.27;;
2434;SDS011;1228;51.022;6.764;2024-01-10T10:40:19;16.60;;;11.43;;
2434;SDS011;1228;51.022;6.764;2024-01-10T10:42:46;17.13;;;11.60;;
2434;SDS011;1228;51.022;6.764;2024-01-10T10:45:14;17.13;;;11.63;;
2434;SDS011;1228;51.022;6.764;2024-01-10T10:47:42;16.73;;;11.63;;
2434;SDS011;1228;51.022;6.764;2024-01-10T10:50:13;18.57;;;12.13;;
2434;SDS011;1228;51.022;6.764;2024-01-10T10:52:45;19.13;;;11.10;;
2434;SDS011;1228;51.022;6.764;2024-01-10T10:55:15;18.27;;;10.33;;
2434;SDS011;1228;51.022;6.764;2024-01-10T10:57:45;14.40;;;9.97;;
2434;SDS011;1228;51.022;6.764;2024-01-10T11:00:17;14.27;;;10.00;;
2434;SDS011;1228;51.022;6.764;2024-01-10T11:02:45;18.60;;;11.10;;
2434;SDS011;1228;51.022;6.764;2024-01-10T11:05:11;19.70;;;11.50;;
2434;SDS011;1228;51.022;6.764;2024-01-10T11:07:37;16.07;;;10.53;;
2434;SDS011;1228;51.022;6.764;2024-01-10T11:10:06;15.67;;;11.30;;
2434;SDS011;1228;51.022;6.764;2024-01-10T11:18:36;17.17;;;10.97;;
2434;SDS011;1228;51.022;6.764;2024-01-10T11:26:04;20.73;;;12.30;;
2434;SDS011;1228;51.022;6.764;2024-01-10T11:28:31;20.13;;;13.10;;
2434;SDS011;1228;51.022;6.764;2024-01-10T11:30:58;22.57;;;13.03;;
2434;SDS011;1228;51.022;6.764;2024-01-10T11:33:24;16.97;;;11.63;;
2434;SDS011;1228;51.022;6.764;2024-01-10T11:38:40;21.97;;;12.10;;
2434;SDS011;1228;51.022;6.764;2024-01-10T11:41:06;27.13;;;12.47;;
2434;SDS011;1228;51.022;6.764;2024-01-10T11:43:33;17.70;;;11.57;;
2434;SDS011;1228;51.022;6.764;2024-01-10T11:45:59;24.73;;;12.00;;
2434;SDS011;1228;51.022;6.764;2024-01-10T11:48:30;21.33;;;12.27;;
2434;SDS011;1228;51.022;6.764;2024-01-10T11:50:59;25.37;;;12.70;;
2434;SDS011;1228;51.022;6.764;2024-01-10T11:53:40;17.37;;;11.53;;
2434;SDS011;1228;51.022;6.764;2024-01-10T11:56:10;23.40;;;12.07;;
2434;SDS011;1228;51.022;6.764;2024-01-10T12:01:30;20.70;;;11.80;;
2434;SDS011;1228;51.022;6.764;2024-01-10T12:03:56;17.80;;;11.07;;
2434;SDS011;1228;51.022;6.764;2024-01-10T12:06:23;22.30;;;11.40;;
2434;SDS011;1228;51.022;6.764;2024-01-10T12:08:50;17.10;;;11.47;;
2434;SDS011;1228;51.022;6.764;2024-01-10T12:11:16;15.50;;;11.27;;
2434;SDS011;1228;51.022;6.764;2024-01-10T12:13:42;16.07;;;10.97;;
2434;SDS011;1228;51.022;6.764;2024-01-10T12:16:08;16.73;;;10.73;;
2434;SDS011;1228;51.022;6.764;2024-01-10T12:18:34;13.60;;;10.37;;
2434;SDS011;1228;51.022;6.764;2024-01-10T12:21:00;20.23;;;11.60;;
2434;SDS011;1228;51.022;6.764;2024-01-10T12:23:26;23.67;;;11.73;;
2434;SDS011;1228;51.022;6.764;2024-01-10T12:25:56;16.97;;;11.30;;
2434;SDS011;1228;51.022;6.764;2024-01-10T12:28:30;16.77;;;11.57;;
2434;SDS011;1228;51.022;6.764;2024-01-10T12:30:56;18.47;;;11.67;;
2434;SDS011;1228;51.022;6.764;2024-01-10T12:33:22;16.87;;;11.03;;
2434;SDS011;1228;51.022;6.764;2024-01-10T12:36:09;16.43;;;11.07;;
2434;SDS011;1228;51.022;6.764;2024-01-10T12:38:36;17.00;;;12.07;;
2434;SDS011;1228;51.022;6.764;2024-01-10T12:41:03;19.67;;;11.07;;
2434;SDS011;1228;51.022;6.764;2024-01-10T12:43:33;17.80;;;12.07;;
2434;SDS011;1228;51.022;6.764;2024-01-10T12:46:02;18.07;;;11.07;;
2434;SDS011;1228;51.022;6.764;2024-01-10T12:48:29;13.93;;;10.60;;
2434;SDS011;1228;51.022;6.764;2024-01-10T12:50:55;17.67;;;11.13;;
2434;SDS011;1228;51.022;6.764;2024-01-10T12:53:21;16.83;;;11.43;;
2434;SDS011;1228;51.022;6.764;2024-01-10T12:55:46;20.60;;;11.00;;
2434;SDS011;1228;51.022;6.764;2024-01-10T12:58:12;21.43;;;11.53;;
2434;SDS011;1228;51.022;6.764;2024-01-10T13:00:38;19.60;;;12.40;;
2434;SDS011;1228;51.022;6.764;2024-01-10T13:03:04;20.57;;;12.30;;
2434;SDS011;1228;51.022;6.764;2024-01-10T13:05:31;21.67;;;11.87;;
2434;SDS011;1228;51.022;6.764;2024-01-10T13:07:56;21.77;;;12.67;;
2434;SDS011;1228;51.022;6.764;2024-01-10T13:10:22;20.47;;;11.17;;
2434;SDS011;1228;51.022;6.764;2024-01-10T13:12:47;22.30;;;12.63;;
2434;SDS011;1228;51.022;6.764;2024-01-10T13:15:13;19.73;;;11.47;;
2434;SDS011;1228;51.022;6.764;2024-01-10T13:17:39;15.63;;;12.07;;
2434;SDS011;1228;51.022;6.764;2024-01-10T13:20:05;19.87;;;11.87;;
2434;SDS011;1228;51.022;6.764;2024-01-10T13:22:31;19.97;;;12.80;;
2434;SDS011;1228;51.022;6.764;2024-01-10T13:24:57;22.77;;;12.90;;
2434;SDS011;1228;51.022;6.764;2024-01-10T13:27:22;25.23;;;12.60;;
2434;SDS011;1228;51.022;6.764;2024-01-10T13:29:48;16.13;;;11.13;;
2434;SDS011;1228;51.022;6.764;2024-01-10T13:32:14;18.13;;;11.70;;
2434;SDS011;1228;51.022;6.764;2024-01-10T13:34:40;21.10;;;12.47;;
2434;SDS011;1228;51.022;6.764;2024-01-10T13:37:06;18.63;;;12.33;;
2434;SDS011;1228;51.022;6.764;2024-01-10T13:39:32;20.63;;;13.33;;
2434;SDS011;1228;51.022;6.764;2024-01-10T13:41:58;19.53;;;12.50;;
2434;SDS011;1228;51.022;6.764;2024-01-10T13:44:24;22.90;;;14.13;;
2434;SDS011;1228;51.022;6.764;2024-01-10T13:46:49;24.83;;;13.80;;
2434;SDS011;1228;51.022;6.764;2024-01-10T13:49:16;21.20;;;13.87;;
2434;SDS011;1228;51.022;6.764;2024-01-10T13:51:41;19.03;;;12.70;;
2434;SDS011;1228;51.022;6.764;2024-01-10T13:54:09;22.93;;;12.80;;
2434;SDS011;1228;51.022;6.764;2024-01-10T13:56:35;24.57;;;14.10;;
2434;SDS011;1228;51.022;6.764;2024-01-10T13:59:00;20.37;;;13.53;;
2434;SDS011;1228;51.022;6.764;2024-01-10T14:01:26;20.60;;;14.30;;
2434;SDS011;1228;51.022;6.764;2024-01-10T14:03:52;19.93;;;13.10;;
2434;SDS011;1228;51.022;6.764;2024-01-10T14:06:17;19.83;;;13.07;;
2434;SDS011;1228;51.022;6.764;2024-01-10T14:08:43;22.17;;;14.80;;
2434;SDS011;1228;51.022;6.764;2024-01-10T14:11:11;23.43;;;14.03;;
2434;SDS011;1228;51.022;6.764;2024-01-10T14:13:37;22.13;;;13.73;;
2434;SDS011;1228;51.022;6.764;2024-01-10T14:16:02;23.90;;;16.23;;
2434;SDS011;1228;51.022;6.764;2024-01-10T14:18:28;18.60;;;13.77;;
2434;SDS011;1228;51.022;6.764;2024-01-10T14:20:54;21.30;;;14.43;;
2434;SDS011;1228;51.022;6.764;2024-01-10T14:23:19;18.00;;;12.87;;
2434;SDS011;1228;51.022;6.764;2024-01-10T14:25:45;20.07;;;13.47;;
2434;SDS011;1228;51.022;6.764;2024-01-10T14:28:11;20.40;;;12.53;;
2434;SDS011;1228;51.022;6.764;2024-01-10T14:30:36;26.67;;;13.90;;
2434;SDS011;1228;51.022;6.764;2024-01-10T14:33:03;21.83;;;12.30;;
2434;SDS011;1228;51.022;6.764;2024-01-10T14:35:29;16.80;;;12.50;;
2434;SDS011;1228;51.022;6.764;2024-01-10T14:37:54;23.27;;;12.43;;
2434;SDS011;1228;51.022;6.764;2024-01-10T14:40:20;20.10;;;13.27;;
2434;SDS011;1228;51.022;6.764;2024-01-10T14:42:48;21.17;;;12.43;;
2434;SDS011;1228;51.022;6.764;2024-01-10T14:45:14;17.10;;;12.27;;
2434;SDS011;1228;51.022;6.764;2024-01-10T14:47:40;23.30;;;13.37;;
2434;SDS011;1228;51.022;6.764;2024-01-10T14:50:06;17.93;;;13.00;;
2434;SDS011;1228;51.022;6.764;2024-01-10T14:52:32;27.50;;;14.17;;
2434;SDS011;1228;51.022;6.764;2024-01-10T14:54:57;22.33;;;12.47;;
2434;SDS011;1228;51.022;6.764;2024-01-10T14:57:23;22.17;;;13.27;;
2434;SDS011;1228;51.022;6.764;2024-01-10T14:59:49;19.73;;;12.33;;
2434;SDS011;1228;51.022;6.764;2024-01-10T15:02:15;23.20;;;13.90;;
2434;SDS011;1228;51.022;6.764;2024-01-10T15:04:43;22.00;;;13.30;;